createdAt,value
2022-09-21T00:00:44.705Z,11.70
2022-09-21T00:02:17.453Z,11.70
2022-09-21T00:03:54.410Z,11.70
2022-09-21T00:05:28.476Z,11.70
2022-09-21T00:07:01.168Z,11.70
2022-09-21T00:08:33.312Z,11.70
2022-09-21T00:10:06.780Z,11.70
2022-09-21T00:11:39.451Z,11.70
2022-09-21T00:13:13.783Z,11.70
2022-09-21T00:14:46.468Z,11.70
2022-09-21T00:16:19.207Z,11.70
2022-09-21T00:17:54.501Z,11.70
2022-09-21T00:19:27.277Z,11.70
2022-09-21T00:21:00.321Z,11.70
2022-09-21T00:22:34.015Z,11.70
2022-09-21T00:24:07.900Z,11.70
2022-09-21T00:25:40.719Z,11.70
2022-09-21T00:27:13.406Z,11.70
2022-09-21T00:28:46.307Z,11.60
2022-09-21T00:30:19.531Z,11.60
2022-09-21T00:31:52.302Z,11.60
2022-09-21T00:33:25.173Z,11.60
2022-09-21T00:34:58.189Z,11.60
2022-09-21T00:36:32.201Z,11.60
2022-09-21T00:38:03.943Z,11.60
2022-09-21T00:39:36.717Z,11.60
2022-09-21T00:41:10.463Z,11.70
2022-09-21T00:42:43.149Z,11.60
2022-09-21T00:44:25.139Z,11.60
2022-09-21T00:46:02.597Z,11.70
2022-09-21T00:47:38.244Z,11.60
2022-09-21T00:49:11.280Z,11.70
2022-09-21T00:50:50.726Z,11.70
2022-09-21T00:52:27.215Z,11.70
2022-09-21T00:54:03.495Z,11.60
2022-09-21T00:55:41.835Z,11.60
2022-09-21T00:57:16.430Z,11.60
2022-09-21T00:58:52.107Z,11.60
2022-09-21T01:00:24.895Z,11.50
2022-09-21T01:01:57.669Z,11.50
2022-09-21T01:03:32.341Z,11.40
2022-09-21T01:05:07.023Z,11.40
2022-09-21T01:06:40.801Z,11.30
2022-09-21T01:08:16.421Z,11.30
2022-09-21T01:09:52.684Z,11.30
2022-09-21T01:11:35.303Z,11.30
2022-09-21T01:13:14.381Z,11.20
2022-09-21T01:14:59.447Z,11.20
2022-09-21T01:16:37.371Z,11.20
2022-09-21T01:18:17.195Z,11.20
2022-09-21T01:20:21.363Z,11.20
2022-09-21T01:22:02.860Z,11.30
2022-09-21T01:24:15.628Z,11.30
2022-09-21T01:26:01.249Z,11.30
2022-09-21T01:27:52.914Z,11.20
2022-09-21T01:29:31.933Z,11.20
2022-09-21T01:31:09.132Z,11.20
2022-09-21T01:32:47.493Z,11.10
2022-09-21T01:34:26.738Z,11.10
2022-09-21T01:36:04.052Z,11.10
2022-09-21T01:37:40.003Z,11.00
2022-09-21T01:39:14.923Z,11.00
2022-09-21T01:40:51.743Z,11.00
2022-09-21T01:42:26.096Z,11.00
2022-09-21T01:44:08.189Z,11.00
2022-09-21T01:45:46.718Z,10.90
2022-09-21T01:47:20.191Z,11.00
2022-09-21T01:48:56.449Z,11.00
2022-09-21T01:50:34.030Z,11.00
2022-09-21T01:52:12.427Z,10.90
2022-09-21T01:53:50.057Z,10.90
2022-09-21T01:55:28.041Z,11.00
2022-09-21T01:57:07.660Z,10.90
2022-09-21T01:58:46.371Z,10.90
2022-09-21T02:00:18.359Z,10.90
2022-09-21T02:01:56.236Z,10.80
2022-09-21T02:03:33.992Z,10.80
2022-09-21T02:05:08.120Z,10.80
2022-09-21T02:06:44.094Z,10.70
2022-09-21T02:08:16.153Z,10.60
2022-09-21T02:09:49.445Z,10.60
2022-09-21T02:11:21.319Z,10.60
2022-09-21T02:13:00.873Z,10.60
2022-09-21T02:14:35.683Z,10.50
2022-09-21T02:16:24.217Z,10.50
2022-09-21T02:18:06.462Z,10.50
2022-09-21T02:19:47.121Z,10.50
2022-09-21T02:21:28.264Z,10.50
2022-09-21T02:23:06.603Z,10.50
2022-09-21T02:24:43.410Z,10.40
2022-09-21T02:26:22.204Z,10.40
2022-09-21T02:27:56.915Z,10.40
2022-09-21T02:29:38.081Z,10.40
2022-09-21T02:31:16.270Z,10.40
2022-09-21T02:32:55.175Z,10.40
2022-09-21T02:34:34.845Z,10.40
2022-09-21T02:36:13.852Z,10.40
2022-09-21T02:37:51.094Z,10.50
2022-09-21T02:39:34.703Z,10.50
2022-09-21T02:41:15.277Z,10.50
2022-09-21T02:42:51.614Z,10.50
2022-09-21T02:44:33.575Z,10.50
2022-09-21T02:46:11.137Z,10.50
2022-09-21T02:47:49.146Z,10.50
2022-09-21T02:49:26.266Z,10.50
2022-09-21T02:51:06.908Z,10.40
2022-09-21T02:52:42.063Z,10.30
2022-09-21T02:54:18.700Z,10.10
2022-09-21T02:55:56.300Z,10.00
2022-09-21T02:57:29.539Z,10.00
2022-09-21T02:59:05.442Z,10.00
2022-09-21T03:00:38.752Z,10.00
2022-09-21T03:02:12.374Z,10.00
2022-09-21T03:03:45.533Z,9.90
2022-09-21T03:05:18.221Z,10.00
2022-09-21T03:06:52.456Z,9.90
2022-09-21T03:08:25.357Z,9.90
2022-09-21T03:09:58.255Z,9.80
2022-09-21T03:11:30.988Z,9.90
2022-09-21T03:13:03.672Z,9.80
2022-09-21T03:14:35.415Z,9.90
2022-09-21T03:16:08.450Z,9.90
2022-09-21T03:17:41.165Z,9.90
2022-09-21T03:19:13.980Z,9.90
2022-09-21T03:20:47.047Z,9.90
2022-09-21T03:22:21.227Z,9.90
2022-09-21T03:23:54.035Z,9.90
2022-09-21T03:25:26.712Z,9.80
2022-09-21T03:26:59.478Z,9.80
2022-09-21T03:28:32.156Z,9.80
2022-09-21T03:30:05.580Z,9.80
2022-09-21T03:31:38.256Z,9.80
2022-09-21T03:33:12.768Z,9.80
2022-09-21T03:34:45.440Z,9.80
2022-09-21T03:36:18.153Z,9.70
2022-09-21T03:37:52.192Z,9.70
2022-09-21T03:39:25.028Z,9.70
2022-09-21T03:40:57.821Z,9.70
2022-09-21T03:42:30.539Z,9.70
2022-09-21T03:44:03.664Z,9.70
2022-09-21T03:45:37.931Z,9.80
2022-09-21T03:47:10.652Z,9.80
2022-09-21T03:48:47.392Z,9.80
2022-09-21T03:50:20.260Z,9.80
2022-09-21T03:51:53.001Z,9.80
2022-09-21T03:53:27.141Z,9.80
2022-09-21T03:54:59.841Z,9.80
2022-09-21T03:56:32.518Z,9.70
2022-09-21T03:58:05.280Z,9.70
2022-09-21T03:59:36.985Z,9.80
2022-09-21T04:01:09.720Z,9.80
2022-09-21T04:02:41.863Z,9.80
2022-09-21T04:04:16.480Z,9.80
2022-09-21T04:05:49.424Z,9.80
2022-09-21T04:07:22.137Z,9.90
2022-09-21T04:08:56.597Z,9.90
2022-09-21T04:10:33.239Z,9.90
2022-09-21T04:12:06.378Z,9.90
2022-09-21T04:13:39.089Z,9.90
2022-09-21T04:15:12.895Z,9.90
2022-09-21T04:16:45.567Z,10.00
2022-09-21T04:18:18.558Z,10.00
2022-09-21T04:19:51.273Z,10.00
2022-09-21T04:21:23.995Z,10.00
2022-09-21T04:22:56.711Z,9.90
2022-09-21T04:24:30.933Z,9.90
2022-09-21T04:26:03.781Z,9.80
2022-09-21T04:27:36.523Z,9.80
2022-09-21T04:29:10.985Z,9.80
2022-09-21T04:30:43.891Z,9.80
2022-09-21T04:32:16.599Z,9.80
2022-09-21T04:33:50.366Z,9.80
2022-09-21T04:35:23.029Z,9.80
2022-09-21T04:36:54.763Z,9.90
2022-09-21T04:38:27.452Z,9.90
2022-09-21T04:40:01.689Z,9.90
2022-09-21T04:41:34.758Z,10.00
2022-09-21T04:43:07.437Z,10.00
2022-09-21T04:44:40.142Z,10.00
2022-09-21T04:46:14.624Z,10.00
2022-09-21T04:47:47.440Z,10.00
2022-09-21T04:49:20.352Z,10.00
2022-09-21T04:50:52.084Z,10.00
2022-09-21T04:52:24.803Z,10.00
2022-09-21T04:53:57.465Z,10.00
2022-09-21T04:55:31.468Z,10.00
2022-09-21T04:57:04.275Z,9.90
2022-09-21T04:58:36.976Z,10.00
2022-09-21T05:00:11.192Z,9.90
2022-09-21T05:01:43.915Z,10.00
2022-09-21T05:03:16.675Z,10.00
2022-09-21T05:04:51.103Z,10.00
2022-09-21T05:06:23.947Z,10.00
2022-09-21T05:07:56.612Z,10.00
2022-09-21T05:09:47.095Z,10.00
2022-09-21T05:11:20.190Z,10.00
2022-09-21T05:12:53.431Z,10.00
2022-09-21T05:14:26.107Z,10.00
2022-09-21T05:15:58.871Z,10.00
2022-09-21T05:17:31.601Z,10.00
2022-09-21T05:19:04.693Z,10.00
2022-09-21T05:20:37.520Z,10.00
2022-09-21T05:22:10.371Z,10.00
2022-09-21T05:23:43.143Z,10.00
2022-09-21T05:25:15.988Z,10.10
2022-09-21T05:26:50.023Z,10.00
2022-09-21T05:28:23.552Z,10.10
2022-09-21T05:29:56.793Z,10.00
2022-09-21T05:31:40.677Z,10.00
2022-09-21T05:33:17.045Z,10.00
2022-09-21T05:34:57.653Z,10.00
2022-09-21T05:36:43.417Z,10.00
2022-09-21T05:38:19.112Z,10.00
2022-09-21T05:39:52.269Z,10.00
2022-09-21T05:41:25.649Z,10.10
2022-09-21T05:43:00.203Z,10.10
2022-09-21T05:44:33.276Z,10.10
2022-09-21T05:46:17.447Z,10.10
2022-09-21T05:47:56.678Z,10.10
2022-09-21T05:49:45.640Z,10.10
2022-09-21T05:51:28.028Z,10.10
2022-09-21T05:53:12.585Z,10.10
2022-09-21T05:54:57.059Z,10.10
2022-09-21T05:56:41.474Z,10.10
2022-09-21T05:58:26.033Z,10.10
2022-09-21T06:00:09.016Z,10.10
2022-09-21T06:01:54.166Z,10.00
2022-09-21T06:03:29.899Z,10.00
2022-09-21T06:05:03.309Z,9.90
2022-09-21T06:06:35.997Z,9.90
2022-09-21T06:08:08.702Z,9.80
2022-09-21T06:09:43.317Z,9.70
2022-09-21T06:11:16.153Z,9.60
2022-09-21T06:12:48.853Z,9.40
2022-09-21T06:14:25.515Z,9.30
2022-09-21T06:15:58.428Z,9.30
2022-09-21T06:17:31.182Z,9.20
2022-09-21T06:19:03.846Z,9.30
2022-09-21T06:20:36.889Z,9.30
2022-09-21T06:22:09.568Z,9.30
2022-09-21T06:23:42.282Z,9.30
2022-09-21T06:25:15.251Z,9.30
2022-09-21T06:26:47.955Z,9.30
2022-09-21T06:28:20.753Z,9.30
2022-09-21T06:29:54.781Z,9.40
2022-09-21T06:31:28.094Z,9.40
2022-09-21T06:33:01.448Z,9.40
2022-09-21T06:34:34.137Z,9.40
2022-09-21T06:36:07.328Z,9.40
2022-09-21T06:37:41.861Z,9.50
2022-09-21T06:39:14.968Z,9.50
2022-09-21T06:40:47.653Z,9.50
2022-09-21T06:42:19.384Z,9.60
2022-09-21T06:43:55.433Z,9.70
2022-09-21T06:45:31.173Z,9.70
2022-09-21T06:47:03.885Z,9.80
2022-09-21T06:48:36.781Z,9.80
2022-09-21T06:50:09.933Z,9.90
2022-09-21T06:51:43.053Z,9.90
2022-09-21T06:53:16.376Z,9.90
2022-09-21T06:54:49.159Z,10.00
2022-09-21T06:56:21.845Z,10.00
2022-09-21T06:57:56.479Z,10.10
2022-09-21T06:59:29.145Z,10.10
2022-09-21T07:01:08.339Z,10.10
2022-09-21T07:02:44.061Z,10.10
2022-09-21T07:04:16.744Z,10.10
2022-09-21T07:05:49.539Z,10.10
2022-09-21T07:07:22.257Z,10.10
2022-09-21T07:10:47.664Z,10.20
2022-09-21T07:12:20.349Z,10.20
2022-09-21T07:13:53.354Z,10.20
2022-09-21T07:15:28.975Z,10.20
2022-09-21T07:17:03.224Z,10.20
2022-09-21T07:18:43.484Z,10.30
2022-09-21T07:20:17.212Z,10.30
2022-09-21T07:21:49.955Z,10.40
2022-09-21T07:23:22.904Z,10.40
2022-09-21T07:24:55.605Z,10.40
2022-09-21T07:26:28.655Z,10.40
2022-09-21T07:28:01.708Z,10.50
2022-09-21T07:29:34.390Z,10.50
2022-09-21T07:31:09.173Z,10.50
2022-09-21T07:32:43.246Z,10.60
2022-09-21T07:34:16.019Z,10.70
2022-09-21T07:35:52.796Z,10.80
2022-09-21T07:37:26.174Z,10.90
2022-09-21T07:38:58.864Z,11.00
2022-09-21T07:40:31.868Z,11.10
2022-09-21T07:42:04.718Z,11.20
2022-09-21T07:43:40.125Z,11.40
2022-09-21T07:45:12.905Z,11.60
2022-09-21T07:46:48.236Z,11.80
2022-09-21T07:48:22.595Z,12.00
2022-09-21T07:49:55.481Z,12.20
2022-09-21T07:51:28.192Z,12.40
2022-09-21T07:53:01.269Z,12.60
2022-09-21T07:54:34.373Z,12.80
2022-09-21T07:56:09.183Z,12.90
2022-09-21T07:57:59.360Z,13.00
2022-09-21T07:59:32.766Z,13.10
2022-09-21T08:01:06.827Z,13.20
2022-09-21T08:02:42.759Z,13.30
2022-09-21T08:04:21.066Z,13.40
2022-09-21T08:05:53.792Z,13.60
2022-09-21T08:07:27.763Z,13.80
2022-09-21T08:09:00.899Z,14.00
2022-09-21T08:10:35.341Z,14.30
2022-09-21T08:12:09.053Z,14.40
2022-09-21T08:13:41.803Z,14.60
2022-09-21T08:15:36.963Z,14.80
2022-09-21T08:17:07.227Z,15.00
2022-09-21T08:18:41.278Z,15.30
2022-09-21T08:20:15.390Z,15.50
2022-09-21T08:21:56.268Z,15.60
2022-09-21T08:23:30.530Z,15.80
2022-09-21T08:25:03.665Z,16.00
2022-09-21T08:26:36.499Z,16.10
2022-09-21T08:28:10.135Z,16.20
2022-09-21T08:29:43.116Z,16.30
2022-09-21T08:31:16.898Z,16.60
2022-09-21T08:32:51.964Z,16.60
2022-09-21T08:34:25.123Z,16.70
2022-09-21T08:36:00.465Z,16.80
2022-09-21T08:37:35.839Z,16.90
2022-09-21T08:39:09.066Z,17.00
2022-09-21T08:40:42.226Z,17.20
2022-09-21T08:42:29.061Z,17.30
2022-09-21T08:44:06.307Z,17.50
2022-09-21T08:45:43.050Z,17.50
2022-09-21T08:47:20.091Z,17.60
2022-09-21T08:48:57.293Z,17.70
2022-09-21T08:50:34.561Z,17.90
2022-09-21T08:52:15.268Z,18.00
2022-09-21T08:53:52.548Z,18.00
2022-09-21T08:55:25.382Z,18.00
2022-09-21T08:57:05.293Z,18.10
2022-09-21T08:58:40.686Z,18.20
2022-09-21T09:00:16.129Z,18.30
2022-09-21T09:02:00.054Z,18.30
2022-09-21T09:03:45.628Z,18.40
2022-09-21T09:05:34.224Z,18.50
2022-09-21T09:07:21.285Z,18.50
2022-09-21T09:09:06.336Z,18.60
2022-09-21T09:10:42.342Z,18.70
2022-09-21T09:12:27.340Z,18.70
2022-09-21T09:14:22.866Z,18.80
2022-09-21T09:16:06.797Z,18.80
2022-09-21T09:17:50.832Z,18.80
2022-09-21T09:19:29.060Z,18.90
2022-09-21T09:21:07.497Z,19.00
2022-09-21T09:22:46.945Z,18.90
2022-09-21T09:24:30.769Z,18.80
2022-09-21T09:26:08.827Z,18.90
2022-09-21T09:27:44.431Z,18.80
2022-09-21T09:29:23.552Z,18.70
2022-09-21T09:31:01.468Z,18.70
2022-09-21T09:32:42.019Z,18.70
2022-09-21T09:34:21.108Z,18.70
2022-09-21T09:35:59.527Z,18.80
2022-09-21T09:37:36.996Z,18.90
2022-09-21T09:39:14.369Z,19.10
2022-09-21T09:41:06.518Z,19.20
2022-09-21T09:42:51.809Z,19.30
2022-09-21T09:44:57.991Z,19.40
2022-09-21T09:46:35.392Z,19.30
2022-09-21T09:48:20.249Z,19.30
2022-09-21T09:50:03.031Z,19.20
2022-09-21T09:51:36.641Z,19.20
2022-09-21T09:53:13.693Z,19.10
2022-09-21T09:54:48.396Z,19.20
2022-09-21T09:56:21.178Z,19.30
2022-09-21T09:57:56.822Z,19.40
2022-09-21T09:59:35.633Z,19.40
2022-09-21T10:01:08.511Z,19.30
2022-09-21T10:02:47.873Z,19.20
2022-09-21T10:04:20.602Z,19.20
2022-09-21T10:05:54.041Z,19.20
2022-09-21T10:07:36.003Z,19.20
2022-09-21T10:09:21.220Z,19.30
2022-09-21T10:10:55.428Z,19.30
2022-09-21T10:12:28.753Z,19.30
2022-09-21T10:14:10.071Z,19.40
2022-09-21T10:15:46.724Z,19.50
2022-09-21T10:17:20.228Z,19.60
2022-09-21T10:18:56.261Z,19.50
2022-09-21T10:20:30.845Z,19.50
2022-09-21T10:22:05.750Z,19.40
2022-09-21T10:23:39.698Z,19.30
2022-09-21T10:25:17.091Z,19.30
2022-09-21T10:26:54.646Z,19.30
2022-09-21T10:28:28.336Z,19.30
2022-09-21T10:30:01.369Z,19.30
2022-09-21T10:31:36.042Z,19.30
2022-09-21T10:33:21.171Z,19.30
2022-09-21T10:35:15.656Z,19.30
2022-09-21T10:36:52.221Z,19.30
2022-09-21T10:38:28.390Z,19.10
2022-09-21T10:40:01.429Z,19.00
2022-09-21T10:41:34.172Z,18.80
2022-09-21T10:43:24.740Z,18.70
2022-09-21T10:45:07.693Z,18.70
2022-09-21T10:46:40.401Z,18.60
2022-09-21T10:48:19.498Z,18.60
2022-09-21T10:49:54.157Z,18.60
2022-09-21T10:51:30.039Z,18.60
2022-09-21T10:53:18.953Z,18.60
2022-09-21T10:54:55.469Z,18.60
2022-09-21T10:56:28.236Z,18.60
2022-09-21T10:58:01.469Z,18.60
2022-09-21T10:59:37.992Z,18.50
2022-09-21T11:01:13.385Z,18.50
2022-09-21T11:02:47.967Z,18.40
2022-09-21T11:04:27.849Z,18.40
2022-09-21T11:06:06.202Z,18.40
2022-09-21T11:07:46.557Z,18.50
2022-09-21T11:09:23.297Z,18.50
2022-09-21T11:11:09.635Z,18.50
2022-09-21T11:12:57.823Z,18.50
2022-09-21T11:14:42.491Z,18.30
2022-09-21T11:16:19.290Z,18.30
2022-09-21T11:18:00.256Z,18.30
2022-09-21T11:19:38.584Z,18.30
2022-09-21T11:21:18.446Z,18.30
2022-09-21T11:23:01.594Z,18.30
2022-09-21T11:24:42.600Z,18.30
2022-09-21T11:26:22.180Z,18.30
2022-09-21T11:28:01.461Z,18.30
2022-09-21T11:29:45.593Z,18.30
2022-09-21T11:31:42.536Z,18.30
2022-09-21T11:33:31.291Z,18.40
2022-09-21T11:35:24.137Z,18.40
2022-09-21T11:37:10.872Z,18.40
2022-09-21T11:38:55.250Z,18.50
2022-09-21T11:40:43.125Z,18.30
2022-09-21T11:42:32.717Z,18.30
2022-09-21T11:44:28.000Z,18.20
2022-09-21T11:46:14.779Z,18.30
2022-09-21T11:48:01.583Z,18.20
2022-09-21T11:50:07.826Z,18.20
2022-09-21T11:52:03.510Z,18.10
2022-09-21T11:53:49.837Z,18.10
2022-09-21T11:55:45.874Z,18.20
2022-09-21T11:57:24.205Z,18.20
2022-09-21T11:59:07.254Z,18.20
2022-09-21T12:00:52.328Z,18.20
2022-09-21T12:04:44.281Z,18.20
2022-09-21T12:06:24.991Z,18.10
2022-09-21T12:08:14.699Z,18.10
2022-09-21T12:10:10.322Z,18.20
2022-09-21T12:11:49.558Z,18.10
2022-09-21T12:13:31.247Z,18.10
2022-09-21T12:15:11.205Z,18.10
2022-09-21T12:16:49.959Z,18.00
2022-09-21T12:18:32.473Z,18.00
2022-09-21T12:20:13.365Z,18.10
2022-09-21T12:21:50.193Z,18.00
2022-09-21T12:23:37.612Z,18.00
2022-09-21T12:25:16.920Z,18.00
2022-09-21T12:26:53.187Z,18.00
2022-09-21T12:28:31.235Z,18.00
2022-09-21T12:30:11.793Z,18.00
2022-09-21T12:31:51.225Z,18.00
2022-09-21T12:33:33.972Z,18.00
2022-09-21T12:35:14.138Z,18.10
2022-09-21T12:36:54.677Z,18.10
2022-09-21T12:40:23.065Z,18.00
2022-09-21T12:42:01.895Z,18.00
2022-09-21T12:43:39.256Z,17.90
2022-09-21T12:45:20.522Z,17.90
2022-09-21T12:47:09.054Z,18.00
2022-09-21T12:48:45.073Z,18.00
2022-09-21T12:50:22.341Z,17.90
2022-09-21T12:51:58.661Z,17.90
2022-09-21T12:53:37.592Z,17.90
2022-09-21T12:55:28.802Z,17.80
2022-09-21T12:57:29.640Z,17.90
2022-09-21T12:59:12.536Z,17.80
2022-09-21T13:00:56.319Z,17.80
2022-09-21T13:02:35.708Z,17.80
2022-09-21T13:04:34.326Z,17.80
2022-09-21T13:06:31.934Z,17.80
2022-09-21T13:08:10.934Z,17.80
2022-09-21T13:09:45.843Z,17.80
2022-09-21T13:11:21.623Z,17.80
2022-09-21T13:12:59.290Z,17.80
2022-09-21T13:14:36.798Z,17.80
2022-09-21T13:16:25.458Z,17.80
2022-09-21T13:18:03.007Z,17.80
2022-09-21T13:19:37.328Z,17.70
2022-09-21T13:21:18.633Z,17.70
2022-09-21T13:23:00.651Z,17.60
2022-09-21T13:24:34.094Z,17.60
2022-09-21T13:26:09.384Z,17.60
2022-09-21T13:28:04.193Z,17.50
2022-09-21T13:29:40.585Z,17.50
2022-09-21T13:31:52.809Z,17.50
2022-09-21T13:33:40.252Z,17.50
2022-09-21T13:35:49.486Z,17.40
2022-09-21T13:37:32.660Z,17.50
2022-09-21T13:39:15.824Z,17.50
2022-09-21T13:40:58.975Z,17.50
2022-09-21T13:42:48.957Z,17.50
2022-09-21T13:44:38.325Z,17.50
2022-09-21T13:46:49.006Z,17.40
2022-09-21T13:48:29.235Z,17.40
2022-09-21T13:50:04.660Z,17.40
2022-09-21T13:51:52.029Z,17.30
2022-09-21T13:53:30.735Z,17.30
2022-09-21T13:55:06.557Z,17.40
2022-09-21T13:56:39.361Z,17.40
2022-09-21T13:58:22.028Z,17.40
2022-09-21T14:00:09.193Z,17.40
2022-09-21T14:01:49.236Z,17.40
2022-09-21T14:03:25.764Z,17.40
2022-09-21T14:05:03.200Z,17.50
2022-09-21T14:06:44.637Z,17.50
2022-09-21T14:08:25.955Z,17.50
2022-09-21T14:10:03.451Z,17.50
2022-09-21T14:11:38.425Z,17.50
2022-09-21T14:13:28.765Z,17.50
2022-09-21T14:15:34.865Z,17.50
2022-09-21T14:17:39.103Z,17.50
2022-09-21T14:19:50.493Z,17.50
2022-09-21T14:21:23.844Z,17.50
2022-09-21T14:23:27.630Z,17.50
2022-09-21T14:25:25.610Z,17.50
2022-09-21T14:27:05.093Z,17.50
2022-09-21T14:28:40.643Z,17.50
2022-09-21T14:30:20.645Z,17.50
2022-09-21T14:31:57.272Z,17.50
2022-09-21T14:33:44.123Z,17.40
2022-09-21T14:35:20.839Z,17.40
2022-09-21T14:36:59.654Z,17.40
2022-09-21T14:38:40.829Z,17.40
2022-09-21T14:40:19.791Z,17.40
2022-09-21T14:41:56.228Z,17.40
2022-09-21T14:43:33.753Z,17.30
2022-09-21T14:45:12.847Z,17.30
2022-09-21T14:47:07.166Z,17.30
2022-09-21T14:48:50.200Z,17.30
2022-09-21T14:50:31.420Z,17.30
2022-09-21T14:52:18.281Z,17.30
2022-09-21T14:54:21.469Z,17.30
2022-09-21T14:56:21.827Z,17.30
2022-09-21T14:58:10.102Z,17.40
2022-09-21T15:00:06.740Z,17.40
2022-09-21T15:01:42.066Z,17.40
2022-09-21T15:03:42.679Z,17.40
2022-09-21T15:05:24.116Z,17.40
2022-09-21T15:07:28.467Z,17.30
2022-09-21T15:09:47.341Z,17.30
2022-09-21T15:11:27.334Z,17.30
2022-09-21T15:13:08.640Z,17.30
2022-09-21T15:14:46.204Z,17.40
2022-09-21T15:16:35.181Z,17.30
2022-09-21T15:18:20.320Z,17.40
2022-09-21T15:19:58.057Z,17.40
2022-09-21T15:21:33.512Z,17.40
2022-09-21T15:23:19.197Z,17.40
2022-09-21T15:24:54.418Z,17.40
2022-09-21T15:26:30.443Z,17.40
2022-09-21T15:28:04.249Z,17.40
2022-09-21T15:29:37.713Z,17.40
2022-09-21T15:31:10.645Z,17.40
2022-09-21T15:32:46.486Z,17.40
2022-09-21T15:34:19.308Z,17.40
2022-09-21T15:35:54.504Z,17.40
2022-09-21T15:37:29.389Z,17.40
2022-09-21T15:39:02.107Z,17.40
2022-09-21T15:40:37.111Z,17.40
2022-09-21T15:42:19.593Z,17.40
2022-09-21T15:44:06.527Z,17.40
2022-09-21T15:45:51.803Z,17.40
2022-09-21T15:47:28.969Z,17.50
2022-09-21T15:49:01.981Z,17.40
2022-09-21T15:50:34.854Z,17.50
2022-09-21T15:52:12.846Z,17.50
2022-09-21T15:53:50.292Z,17.50
2022-09-21T15:55:24.189Z,17.50
2022-09-21T15:56:57.042Z,17.50
2022-09-21T15:58:35.714Z,17.50
2022-09-21T16:00:20.224Z,17.50
2022-09-21T16:01:55.655Z,17.50
2022-09-21T16:03:28.556Z,17.50
2022-09-21T16:05:00.427Z,17.50
2022-09-21T16:06:38.440Z,17.50
2022-09-21T16:08:26.731Z,17.50
2022-09-21T16:10:01.851Z,17.40
2022-09-21T16:11:37.585Z,17.40
2022-09-21T16:13:36.285Z,17.40
2022-09-21T16:15:20.533Z,17.40
2022-09-21T16:17:20.004Z,17.30
2022-09-21T16:18:55.300Z,17.30
2022-09-21T16:20:40.451Z,17.30
2022-09-21T16:22:14.131Z,17.30
2022-09-21T16:23:48.090Z,17.20
2022-09-21T16:25:27.066Z,17.20
2022-09-21T16:27:02.651Z,17.20
2022-09-21T16:28:38.325Z,17.20
2022-09-21T16:30:44.686Z,17.20
2022-09-21T16:32:28.684Z,17.10
2022-09-21T16:34:07.849Z,17.20
2022-09-21T16:35:40.913Z,17.10
2022-09-21T16:37:30.601Z,17.00
2022-09-21T16:39:06.157Z,17.10
2022-09-21T16:40:39.593Z,17.00
2022-09-21T16:42:12.806Z,17.00
2022-09-21T16:43:45.049Z,17.00
2022-09-21T16:45:25.933Z,17.00
2022-09-21T16:47:02.093Z,17.00
2022-09-21T16:48:34.913Z,17.00
2022-09-21T16:50:12.717Z,17.00
2022-09-21T16:51:46.723Z,16.90
2022-09-21T16:53:23.391Z,16.90
2022-09-21T16:54:56.506Z,16.90
2022-09-21T16:56:31.142Z,16.80
2022-09-21T16:58:03.981Z,16.80
2022-09-21T16:59:36.684Z,16.80
2022-09-21T17:01:12.728Z,16.70
2022-09-21T17:02:46.873Z,16.70
2022-09-21T17:04:20.128Z,16.70
2022-09-21T17:05:52.818Z,16.70
2022-09-21T17:07:25.572Z,16.70
2022-09-21T17:08:58.495Z,16.60
2022-09-21T17:10:40.160Z,16.60
2022-09-21T17:12:14.659Z,16.60
2022-09-21T17:13:46.689Z,16.60
2022-09-21T17:15:20.195Z,16.60
2022-09-21T17:16:54.779Z,16.50
2022-09-21T17:18:29.042Z,16.50
2022-09-21T17:20:09.758Z,16.50
2022-09-21T17:21:42.743Z,16.40
2022-09-21T17:23:15.633Z,16.40
2022-09-21T17:24:52.099Z,16.40
2022-09-21T17:26:25.096Z,16.30
2022-09-21T17:27:58.910Z,16.30
2022-09-21T17:29:32.236Z,16.30
2022-09-21T17:31:09.232Z,16.20
2022-09-21T17:32:42.521Z,16.20
2022-09-21T17:34:16.650Z,16.10
2022-09-21T17:35:51.099Z,16.10
2022-09-21T17:37:25.022Z,16.00
2022-09-21T17:38:57.904Z,16.00
2022-09-21T17:40:31.267Z,16.00
2022-09-21T17:42:11.588Z,16.00
2022-09-21T17:43:52.585Z,15.90
2022-09-21T17:45:32.465Z,15.80
2022-09-21T17:47:14.126Z,15.80
2022-09-21T17:48:47.368Z,15.70
2022-09-21T17:50:25.756Z,15.60
2022-09-21T17:52:16.254Z,15.60
2022-09-21T17:53:48.407Z,15.50
2022-09-21T17:55:21.536Z,15.40
2022-09-21T17:57:02.013Z,15.50
2022-09-21T17:58:44.229Z,15.40
2022-09-21T18:00:20.988Z,15.40
2022-09-21T18:01:54.060Z,15.30
2022-09-21T18:03:29.465Z,15.30
2022-09-21T18:05:18.581Z,15.30
2022-09-21T18:06:53.422Z,15.30
2022-09-21T18:08:26.904Z,15.20
2022-09-21T18:10:00.124Z,15.20
2022-09-21T18:11:47.505Z,15.10
2022-09-21T18:13:28.636Z,15.10
2022-09-21T18:15:10.039Z,15.00
2022-09-21T18:16:51.472Z,15.00
2022-09-21T18:18:42.624Z,15.00
2022-09-21T18:20:25.174Z,14.90
2022-09-21T18:22:06.276Z,14.90
2022-09-21T18:23:45.420Z,14.80
2022-09-21T18:25:30.705Z,14.80
2022-09-21T18:27:03.864Z,14.80
2022-09-21T18:28:40.884Z,14.80
2022-09-21T18:30:14.027Z,14.80
2022-09-21T18:31:57.772Z,14.70
2022-09-21T18:33:41.190Z,14.70
2022-09-21T18:35:34.675Z,14.70
2022-09-21T18:37:15.519Z,14.70
2022-09-21T18:39:01.288Z,14.70
2022-09-21T18:40:40.945Z,14.60
2022-09-21T18:42:28.246Z,14.60
2022-09-21T18:44:14.954Z,14.60
2022-09-21T18:45:54.026Z,14.50
2022-09-21T18:47:32.627Z,14.50
2022-09-21T18:49:14.977Z,14.50
2022-09-21T18:50:55.266Z,14.50
2022-09-21T18:52:40.169Z,14.40
2022-09-21T18:54:19.467Z,14.40
2022-09-21T18:55:53.053Z,14.40
2022-09-21T18:57:26.236Z,14.40
2022-09-21T18:58:59.264Z,14.40
2022-09-21T19:00:34.638Z,14.40
2022-09-21T19:02:15.379Z,14.40
2022-09-21T19:03:49.103Z,14.40
2022-09-21T19:05:22.696Z,14.40
2022-09-21T19:07:01.354Z,14.40
2022-09-21T19:08:43.400Z,14.40
2022-09-21T19:10:21.526Z,14.40
2022-09-21T19:12:01.191Z,14.40
2022-09-21T19:13:44.354Z,14.40
2022-09-21T19:15:42.059Z,14.40
2022-09-21T19:17:26.629Z,14.40
2022-09-21T19:19:11.981Z,14.30
2022-09-21T19:20:54.658Z,14.30
2022-09-21T19:22:37.211Z,14.30
2022-09-21T19:24:20.568Z,14.30
2022-09-21T19:25:59.795Z,14.20
2022-09-21T19:27:39.339Z,14.20
2022-09-21T19:29:39.261Z,14.20
2022-09-21T19:31:13.984Z,14.20
2022-09-21T19:32:48.688Z,14.10
2022-09-21T19:34:21.681Z,14.10
2022-09-21T19:35:54.647Z,14.10
2022-09-21T19:37:27.537Z,14.10
2022-09-21T19:39:00.624Z,14.10
2022-09-21T19:40:38.873Z,14.00
2022-09-21T19:42:25.437Z,14.00
2022-09-21T19:44:11.396Z,14.00
2022-09-21T19:46:04.260Z,14.00
2022-09-21T19:47:42.265Z,13.90
2022-09-21T19:49:18.909Z,13.90
2022-09-21T19:50:54.867Z,13.90
2022-09-21T19:52:32.877Z,13.80
2022-09-21T19:54:31.243Z,13.90
2022-09-21T19:56:28.910Z,13.80
2022-09-21T19:58:19.678Z,13.80
2022-09-21T19:59:53.059Z,13.80
2022-09-21T20:01:27.709Z,13.70
2022-09-21T20:03:04.749Z,13.70
2022-09-21T20:04:42.506Z,13.70
2022-09-21T20:06:22.394Z,13.70
2022-09-21T20:08:01.712Z,13.70
2022-09-21T20:09:42.024Z,13.60
2022-09-21T20:11:21.762Z,13.60
2022-09-21T20:13:02.493Z,13.60
2022-09-21T20:14:43.048Z,13.60
2022-09-21T20:16:28.264Z,13.60
2022-09-21T20:18:07.592Z,13.60
2022-09-21T20:19:48.123Z,13.60
2022-09-21T20:21:23.187Z,13.60
2022-09-21T20:22:56.546Z,13.60
2022-09-21T20:24:33.951Z,13.60
2022-09-21T20:26:12.768Z,13.60
2022-09-21T20:27:50.325Z,13.60
2022-09-21T20:29:23.066Z,13.60
2022-09-21T20:30:55.923Z,13.60
2022-09-21T20:32:29.112Z,13.50
2022-09-21T20:34:01.783Z,13.60
2022-09-21T20:35:35.610Z,13.50
2022-09-21T20:37:12.169Z,13.50
2022-09-21T20:38:45.056Z,13.50
2022-09-21T20:40:18.525Z,13.50
2022-09-21T20:41:51.714Z,13.50
2022-09-21T20:43:31.696Z,13.40
2022-09-21T20:45:07.113Z,13.40
2022-09-21T20:46:39.856Z,13.40
2022-09-21T20:48:15.543Z,13.40
2022-09-21T20:49:48.704Z,13.40
2022-09-21T20:51:21.691Z,13.40
2022-09-21T20:52:54.363Z,13.40
2022-09-21T20:54:27.048Z,13.40
2022-09-21T20:56:01.877Z,13.30
2022-09-21T20:57:34.591Z,13.30
2022-09-21T20:59:08.671Z,13.30
2022-09-21T21:00:41.536Z,13.30
2022-09-21T21:02:16.511Z,13.30
2022-09-21T21:03:49.259Z,13.20
2022-09-21T21:05:22.131Z,13.20
2022-09-21T21:06:55.355Z,13.20
2022-09-21T21:08:28.046Z,13.20
2022-09-21T21:10:00.910Z,13.20
2022-09-21T21:11:33.692Z,13.20
2022-09-21T21:13:06.482Z,13.10
2022-09-21T21:14:40.685Z,13.10
2022-09-21T21:16:13.386Z,13.10